createdAt,value
2018-03-17T00:04:11.710Z,101572.80
2018-03-17T00:09:12.628Z,101579.03
2018-03-17T00:14:13.564Z,101574.94
2018-03-17T00:19:14.512Z,101575.05
2018-03-17T00:24:15.466Z,101589.75
2018-03-17T00:29:16.403Z,101585.09
2018-03-17T00:34:17.356Z,101579.95
2018-03-17T00:39:18.309Z,101592.17
2018-03-17T00:44:19.284Z,101586.48
2018-03-17T00:49:20.213Z,101584.08
2018-03-17T00:54:21.140Z,101572.13
2018-03-17T00:59:22.076Z,101576.33
2018-03-17T01:04:23.024Z,101579.34
2018-03-17T01:09:23.975Z,101574.23
2018-03-17T01:14:24.910Z,101582.42
2018-03-17T01:19:25.848Z,101576.94
2018-03-17T01:24:26.787Z,101573.92
2018-03-17T01:29:27.716Z,101548.90
2018-03-17T01:34:28.652Z,101552.66
2018-03-17T01:39:29.596Z,101552.02
2018-03-17T01:44:30.569Z,101551.68
2018-03-17T01:49:31.490Z,101544.33
2018-03-17T01:54:32.457Z,101554.02
2018-03-17T01:59:33.389Z,101537.68
2018-03-17T02:04:34.322Z,101531.20
2018-03-17T02:09:35.286Z,101542.56
2018-03-17T02:14:36.232Z,101541.03
2018-03-17T02:19:37.156Z,101513.33
2018-03-17T02:24:38.078Z,101510.72
2018-03-17T02:29:39.006Z,101510.70
2018-03-17T02:34:39.972Z,101498.86
2018-03-17T02:39:40.923Z,101516.64
2018-03-17T02:44:41.875Z,101506.95
2018-03-17T02:49:42.816Z,101490.01
2018-03-17T02:54:43.763Z,101509.70
2018-03-17T02:59:44.700Z,101512.00
2018-03-17T03:04:45.625Z,101496.34
2018-03-17T03:09:46.833Z,101538.34
2018-03-17T03:14:47.785Z,101530.95
2018-03-17T03:19:48.718Z,101500.92
2018-03-17T03:24:49.657Z,101532.25
2018-03-17T03:29:50.853Z,101527.66
2018-03-17T03:34:51.791Z,101514.34
2018-03-17T03:39:52.725Z,101501.48
2018-03-17T03:44:53.702Z,101504.16
2018-03-17T03:49:54.642Z,101495.97
2018-03-17T03:54:56.463Z,101494.52
2018-03-17T03:59:57.380Z,101524.75
2018-03-17T04:04:58.345Z,101520.63
2018-03-17T04:09:59.282Z,101500.98
2018-03-17T04:15:00.203Z,101517.52
2018-03-17T04:20:01.143Z,101536.14
2018-03-17T04:25:02.098Z,101548.03
2018-03-17T04:30:03.051Z,101530.66
2018-03-17T04:35:03.999Z,101541.38
2018-03-17T04:40:04.925Z,101536.02
2018-03-17T04:45:06.323Z,101534.70
2018-03-17T04:50:07.251Z,101525.48
2018-03-17T04:55:08.221Z,101557.22
2018-03-17T05:00:09.144Z,101535.64
2018-03-17T05:05:10.069Z,101554.44
2018-03-17T05:10:10.979Z,101528.52
2018-03-17T05:15:11.894Z,101556.78
2018-03-17T05:20:12.868Z,101558.97
2018-03-17T05:25:13.804Z,101554.84
2018-03-17T05:30:14.727Z,101560.77
2018-03-17T05:35:15.655Z,101555.47
2018-03-17T05:40:16.606Z,101575.20
2018-03-17T05:45:17.600Z,101566.88
2018-03-17T05:50:18.528Z,101586.89
2018-03-17T05:55:19.488Z,101559.53
2018-03-17T06:00:20.422Z,101572.52
2018-03-17T06:05:21.351Z,101593.15
2018-03-17T06:10:22.305Z,101571.39
2018-03-17T06:15:23.505Z,101588.55
2018-03-17T06:20:24.447Z,101568.67
2018-03-17T06:25:25.392Z,101582.70
2018-03-17T06:30:26.329Z,101582.70
2018-03-17T06:35:27.268Z,101593.25
2018-03-17T06:40:28.210Z,101577.55
2018-03-17T06:45:29.170Z,101609.80
2018-03-17T06:50:30.133Z,101605.27
2018-03-17T06:55:31.247Z,101631.73
2018-03-17T07:00:32.224Z,101629.34
2018-03-17T07:05:33.152Z,101632.78
2018-03-17T07:10:34.106Z,101637.16
2018-03-17T07:15:35.037Z,101638.31
2018-03-17T07:20:35.959Z,101624.23
2018-03-17T07:25:37.712Z,101612.42
2018-03-17T07:30:38.662Z,101635.75
2018-03-17T07:35:39.858Z,101635.06
2018-03-17T07:40:40.808Z,101640.92
2018-03-17T07:45:41.815Z,101657.95
2018-03-17T07:50:42.773Z,101645.69
2018-03-17T07:55:43.770Z,101638.60
2018-03-17T08:00:44.735Z,101639.80
2018-03-17T08:05:45.734Z,101643.31
2018-03-17T08:10:46.693Z,101640.18
2018-03-17T08:15:47.632Z,101628.82
2018-03-17T08:20:48.567Z,101644.42
2018-03-17T08:25:49.514Z,101642.02
2018-03-17T08:30:50.433Z,101625.67
2018-03-17T08:35:51.385Z,101616.60
2018-03-17T08:40:52.346Z,101639.00
2018-03-17T08:45:53.356Z,101623.30
2018-03-17T08:50:54.318Z,101615.55
2018-03-17T08:55:55.286Z,101604.54
2018-03-17T09:00:56.241Z,101606.44
2018-03-17T09:05:57.187Z,101614.75
2018-03-17T09:10:58.129Z,101634.70
2018-03-17T09:15:59.101Z,101642.03
2018-03-17T09:21:00.075Z,101620.88
2018-03-17T09:26:01.027Z,101608.62
2018-03-17T09:31:02.010Z,101638.95
2018-03-17T09:36:02.977Z,101623.77
2018-03-17T09:41:03.937Z,101623.39
2018-03-17T09:46:04.933Z,101625.75
2018-03-17T09:51:05.905Z,101643.12
2018-03-17T09:56:06.927Z,101616.44
2018-03-17T10:01:08.146Z,101612.40
2018-03-17T10:06:09.118Z,101618.08
2018-03-17T10:11:10.086Z,101615.66
2018-03-17T10:16:11.068Z,101615.94
2018-03-17T10:21:12.061Z,101590.56
2018-03-17T10:26:13.018Z,101616.98
2018-03-17T10:31:14.015Z,101625.38
2018-03-17T10:36:14.981Z,101633.17
2018-03-17T10:41:15.971Z,101627.94
2018-03-17T10:46:16.942Z,101621.93
2018-03-17T10:51:17.902Z,101611.35
2018-03-17T10:56:18.886Z,101594.70
2018-03-17T11:01:20.149Z,101610.99
2018-03-17T11:06:21.116Z,101601.81
2018-03-17T11:11:22.091Z,101619.12
2018-03-17T11:16:23.833Z,101538.08
2018-03-17T11:21:24.815Z,101626.02
2018-03-17T11:26:25.810Z,101627.03
2018-03-17T11:31:26.763Z,101597.62
2018-03-17T11:36:27.725Z,101622.86
2018-03-17T11:41:28.721Z,101624.77
2018-03-17T11:46:29.713Z,101597.14
2018-03-17T11:51:30.692Z,101617.75
2018-03-17T11:56:31.677Z,101581.98
2018-03-17T12:01:32.639Z,101594.67
2018-03-17T12:06:33.615Z,101597.48
2018-03-17T12:11:34.576Z,101584.12
2018-03-17T12:16:35.529Z,101570.10
2018-03-17T12:21:36.461Z,101588.86
2018-03-17T12:26:37.440Z,101589.36
2018-03-17T12:31:38.406Z,101587.23
2018-03-17T12:36:39.368Z,101585.37
2018-03-17T12:41:40.326Z,101540.55
2018-03-17T12:46:41.314Z,101573.59
2018-03-17T12:51:42.303Z,101562.36
2018-03-17T12:56:43.318Z,101574.57
2018-03-17T13:01:44.299Z,101568.30
2018-03-17T13:06:45.235Z,101576.16
2018-03-17T13:11:46.161Z,101560.35
2018-03-17T13:16:47.196Z,101576.17
2018-03-17T13:21:48.084Z,101564.05
2018-03-17T13:27:01.379Z,101571.72
2018-03-17T13:32:02.338Z,101559.61
2018-03-17T13:37:12.305Z,101551.44
2018-03-17T13:42:13.261Z,101552.03
2018-03-17T13:47:14.253Z,101553.55
2018-03-17T13:52:15.214Z,101575.27
2018-03-17T13:57:16.173Z,101563.14
2018-03-17T14:02:17.185Z,101557.86
2018-03-17T14:07:18.085Z,101545.41
2018-03-17T14:12:19.053Z,101545.95
2018-03-17T14:17:20.015Z,101541.81
2018-03-17T14:22:20.945Z,101580.48
2018-03-17T14:27:21.913Z,101548.55
2018-03-17T14:32:22.898Z,101552.16
2018-03-17T14:37:23.867Z,101545.54
2018-03-17T14:42:24.820Z,101522.79
2018-03-17T14:47:25.804Z,101578.80
2018-03-17T14:52:26.811Z,101539.05
2018-03-17T14:57:27.758Z,101569.05
2018-03-17T15:02:28.746Z,101521.47
2018-03-17T15:07:29.702Z,101564.53
2018-03-17T15:12:30.669Z,101552.27
2018-03-17T15:17:31.614Z,101576.45
2018-03-17T15:22:32.586Z,101567.41
2018-03-17T15:27:33.512Z,101572.81
2018-03-17T15:32:34.512Z,101560.30
2018-03-17T15:37:35.479Z,101571.81
2018-03-17T15:42:36.447Z,101575.91
2018-03-17T15:47:37.422Z,101557.88
2018-03-17T15:52:38.426Z,101579.71
2018-03-17T15:57:39.543Z,101558.16
2018-03-17T16:02:40.515Z,101555.40
2018-03-17T16:07:42.276Z,101589.66
2018-03-17T16:12:44.171Z,101583.55
2018-03-17T16:17:45.148Z,101594.06
2018-03-17T16:22:46.120Z,101599.83
2018-03-17T16:27:47.072Z,101602.23
2018-03-17T16:32:47.997Z,101594.61
2018-03-17T16:37:49.857Z,101626.03
2018-03-17T16:42:50.817Z,101611.34
2018-03-17T16:47:51.837Z,101623.57
2018-03-17T16:52:52.802Z,101625.23
2018-03-17T16:57:53.940Z,101642.64
2018-03-17T17:02:54.921Z,101627.38
2018-03-17T17:07:55.909Z,101609.22
2018-03-17T17:12:56.875Z,101617.19
2018-03-17T17:17:58.125Z,101653.64
2018-03-17T17:22:59.103Z,101665.53
2018-03-17T17:28:00.072Z,101625.64
2018-03-17T17:33:01.052Z,101637.27
2018-03-17T17:38:02.067Z,101628.70
2018-03-17T17:43:03.027Z,101657.14
2018-03-17T17:48:04.012Z,101658.02
2018-03-17T17:53:05.399Z,101684.52
2018-03-17T17:58:06.436Z,101669.51
2018-03-17T18:03:07.395Z,101664.58
2018-03-17T18:08:09.337Z,101664.80
2018-03-17T18:13:10.309Z,101686.34
2018-03-17T18:18:11.275Z,101695.41
2018-03-17T18:23:12.251Z,101687.13
2018-03-17T18:28:13.200Z,101696.68
2018-03-17T18:33:14.169Z,101663.17
2018-03-17T18:38:15.149Z,101701.83
2018-03-17T18:43:16.094Z,101676.30
2018-03-17T18:48:17.102Z,101669.99
2018-03-17T18:53:18.106Z,101681.28
2018-03-17T18:58:19.090Z,101675.98
2018-03-17T19:03:20.030Z,101715.03
2018-03-17T19:08:21.026Z,101712.33
2018-03-17T19:13:22.011Z,101714.30
2018-03-17T19:18:23.004Z,101700.04
2018-03-17T19:23:23.973Z,101695.97
2018-03-17T19:28:24.943Z,101722.03
2018-03-17T19:33:26.187Z,101671.68
2018-03-17T19:38:27.147Z,101711.93
2018-03-17T19:43:28.180Z,101698.16
2018-03-17T19:48:29.220Z,101715.95
2018-03-17T19:53:30.221Z,101716.15
2018-03-17T19:58:31.330Z,101720.52
2018-03-17T20:03:32.307Z,101709.67
2018-03-17T20:08:33.278Z,101684.59
2018-03-17T20:13:34.256Z,101705.30
2018-03-17T20:18:35.243Z,101715.69
2018-03-17T20:23:36.198Z,101706.16
2018-03-17T20:28:37.169Z,101735.08
2018-03-17T20:33:38.117Z,101739.98
2018-03-17T20:38:39.136Z,101730.45
2018-03-17T20:43:40.101Z,101706.59
2018-03-17T20:48:41.122Z,101735.20
2018-03-17T20:53:42.168Z,101744.93
2018-03-17T20:58:43.245Z,101737.81
2018-03-17T21:03:44.256Z,101744.67
2018-03-17T21:08:45.304Z,101745.80
2018-03-17T21:13:46.303Z,101753.71
2018-03-17T21:18:47.301Z,101769.77
2018-03-17T21:23:48.276Z,101755.39
2018-03-17T21:28:49.260Z,101758.81
2018-03-17T21:33:50.227Z,101754.09
2018-03-17T21:38:51.178Z,101735.27
2018-03-17T21:43:52.137Z,101757.20
2018-03-17T21:48:53.132Z,101750.97
2018-03-17T21:53:54.111Z,101746.27
2018-03-17T21:58:55.140Z,101759.45
2018-03-17T22:03:56.121Z,101763.16
2018-03-17T22:08:57.089Z,101755.49
2018-03-17T22:13:58.046Z,101756.63
2018-03-17T22:18:58.984Z,101748.97
2018-03-17T22:23:59.989Z,101759.63
2018-03-17T22:29:00.959Z,101752.86
2018-03-17T22:34:01.920Z,101753.47
2018-03-17T22:39:02.978Z,101751.30
2018-03-17T22:44:04.009Z,101771.03
2018-03-17T22:49:05.001Z,101759.24
2018-03-17T22:54:06.023Z,101751.52
2018-03-17T22:59:07.029Z,101764.55
2018-03-17T23:04:08.029Z,101769.98
2018-03-17T23:09:08.933Z,101774.99
2018-03-17T23:14:09.865Z,101757.91
2018-03-17T23:19:10.866Z,101741.81
2018-03-17T23:24:11.904Z,101731.75
2018-03-17T23:29:12.864Z,101758.83
2018-03-17T23:34:13.815Z,101777.83
2018-03-17T23:39:14.785Z,101760.97
2018-03-17T23:44:15.729Z,101770.48
2018-03-17T23:49:16.720Z,101777.20
2018-03-17T23:54:17.687Z,101786.67
2018-03-17T23:59:18.688Z,101792.16
